createdAt,value
2017-10-02T00:00:00.197Z,11.00
2017-10-02T00:02:26.506Z,11.00
2017-10-02T00:04:52.809Z,10.90
2017-10-02T00:07:19.075Z,10.90
2017-10-02T00:09:45.349Z,10.90
2017-10-02T00:12:11.619Z,11.00
2017-10-02T00:14:37.962Z,11.00
2017-10-02T00:17:04.198Z,11.00
2017-10-02T00:19:30.430Z,11.00
2017-10-02T00:21:56.748Z,11.00
2017-10-02T00:24:22.990Z,11.00
2017-10-02T00:26:49.267Z,11.00
2017-10-02T00:29:15.530Z,11.00
2017-10-02T00:31:41.817Z,11.00
2017-10-02T00:34:08.110Z,11.00
2017-10-02T00:36:34.407Z,11.00
2017-10-02T00:39:00.687Z,11.00
2017-10-02T00:41:27.675Z,10.90
2017-10-02T00:43:54.020Z,10.90
2017-10-02T00:46:20.282Z,10.90
2017-10-02T00:48:46.512Z,10.90
2017-10-02T00:51:12.831Z,10.80
2017-10-02T00:53:39.198Z,10.80
2017-10-02T00:56:05.471Z,10.80
2017-10-02T00:58:31.776Z,10.80
2017-10-02T01:00:58.058Z,10.80
2017-10-02T01:03:24.363Z,10.80
2017-10-02T01:05:50.750Z,10.80
2017-10-02T01:08:17.074Z,10.90
2017-10-02T01:10:43.357Z,10.90
2017-10-02T01:13:09.724Z,10.90
2017-10-02T01:15:36.759Z,10.80
2017-10-02T01:18:03.009Z,10.80
2017-10-02T01:20:29.325Z,10.80
2017-10-02T01:22:56.274Z,10.90
2017-10-02T01:25:23.266Z,10.90
2017-10-02T01:27:49.545Z,10.90
2017-10-02T01:30:16.521Z,10.80
2017-10-02T01:32:42.776Z,10.80
2017-10-02T01:35:09.034Z,10.80
2017-10-02T01:37:35.238Z,10.80
2017-10-02T01:40:01.471Z,10.80
2017-10-02T01:42:27.773Z,10.80
2017-10-02T01:44:54.090Z,10.80
2017-10-02T01:47:20.397Z,10.80
2017-10-02T01:49:47.739Z,10.80
2017-10-02T01:52:14.018Z,10.80
2017-10-02T01:54:40.285Z,10.80
2017-10-02T01:57:06.583Z,10.80
2017-10-02T01:59:32.829Z,10.80
2017-10-02T02:01:59.117Z,10.80
2017-10-02T02:04:26.110Z,10.80
2017-10-02T02:06:52.334Z,10.80
2017-10-02T02:09:18.590Z,10.70
2017-10-02T02:11:44.933Z,10.70
2017-10-02T02:14:11.205Z,10.70
2017-10-02T02:16:37.473Z,10.70
2017-10-02T02:19:04.525Z,10.60
2017-10-02T02:21:30.778Z,10.60
2017-10-02T02:23:57.766Z,10.50
2017-10-02T02:26:23.994Z,10.50
2017-10-02T02:28:50.207Z,10.50
2017-10-02T02:31:16.505Z,10.40
2017-10-02T02:33:43.518Z,10.40
2017-10-02T02:36:09.822Z,10.40
2017-10-02T02:38:36.094Z,10.40
2017-10-02T02:41:02.418Z,10.40
2017-10-02T02:43:29.383Z,10.40
2017-10-02T02:45:55.632Z,10.40
2017-10-02T02:48:22.641Z,10.40
2017-10-02T02:50:49.628Z,10.40
2017-10-02T02:53:16.621Z,10.40
2017-10-02T02:55:42.922Z,10.40
2017-10-02T02:58:09.180Z,10.40
2017-10-02T03:00:35.422Z,10.40
2017-10-02T03:03:01.733Z,10.40
2017-10-02T03:05:27.979Z,10.40
2017-10-02T03:07:54.235Z,10.30
2017-10-02T03:10:21.265Z,10.30
2017-10-02T03:12:47.589Z,10.20
2017-10-02T03:15:14.603Z,10.20
2017-10-02T03:17:40.941Z,10.10
2017-10-02T03:20:07.246Z,10.10
2017-10-02T03:22:33.490Z,10.00
2017-10-02T03:24:59.757Z,9.90
2017-10-02T03:27:25.985Z,9.80
2017-10-02T03:29:52.222Z,9.80
2017-10-02T03:32:19.221Z,9.60
2017-10-02T03:34:45.485Z,9.60
2017-10-02T03:37:12.531Z,9.60
2017-10-02T03:39:38.786Z,9.60
2017-10-02T03:42:05.098Z,9.60
2017-10-02T03:44:32.156Z,9.60
2017-10-02T03:46:58.462Z,9.50
2017-10-02T03:49:24.750Z,9.50
2017-10-02T03:51:50.992Z,9.50
2017-10-02T03:54:17.237Z,9.50
2017-10-02T03:56:43.573Z,9.40
2017-10-02T03:59:09.818Z,9.40
2017-10-02T04:01:36.137Z,9.40
2017-10-02T04:04:02.394Z,9.40
2017-10-02T04:06:28.657Z,9.40
2017-10-02T04:08:55.024Z,9.40
2017-10-02T04:11:21.286Z,9.40
2017-10-02T04:13:47.622Z,9.40
2017-10-02T04:16:14.704Z,9.50
2017-10-02T04:18:40.937Z,9.50
2017-10-02T04:21:07.239Z,9.50
2017-10-02T04:23:34.214Z,9.70
2017-10-02T04:26:00.442Z,9.60
2017-10-02T04:28:26.681Z,9.70
2017-10-02T04:30:52.932Z,9.80
2017-10-02T04:33:19.203Z,9.90
2017-10-02T04:35:46.211Z,10.00
2017-10-02T04:38:12.501Z,10.00
2017-10-02T04:40:38.784Z,10.00
2017-10-02T04:43:05.098Z,10.00
2017-10-02T04:45:31.430Z,10.00
2017-10-02T04:47:57.746Z,10.10
2017-10-02T04:50:23.984Z,10.10
2017-10-02T04:52:50.262Z,10.10
2017-10-02T04:55:16.524Z,10.10
2017-10-02T04:57:42.759Z,10.10
2017-10-02T05:00:09.097Z,10.20
2017-10-02T05:02:35.330Z,10.20
2017-10-02T05:05:01.600Z,10.20
2017-10-02T05:07:28.593Z,10.20
2017-10-02T05:09:54.843Z,10.20
2017-10-02T05:12:21.156Z,10.30
2017-10-02T05:14:47.407Z,10.30
2017-10-02T05:17:13.637Z,10.30
2017-10-02T05:19:40.648Z,10.30
2017-10-02T05:22:06.943Z,10.30
2017-10-02T05:24:33.997Z,10.30
2017-10-02T05:27:00.297Z,10.30
2017-10-02T05:29:26.552Z,10.30
2017-10-02T05:31:53.611Z,10.30
2017-10-02T05:34:19.852Z,10.30
2017-10-02T05:36:46.100Z,10.40
2017-10-02T05:39:12.358Z,10.40
2017-10-02T05:41:38.618Z,10.40
2017-10-02T05:44:05.800Z,10.40
2017-10-02T05:46:32.085Z,10.40
2017-10-02T05:48:59.125Z,10.50
2017-10-02T05:51:25.529Z,10.50
2017-10-02T05:53:51.787Z,10.50
2017-10-02T05:56:18.019Z,10.60
2017-10-02T05:58:44.328Z,10.60
2017-10-02T06:01:10.565Z,10.70
2017-10-02T06:03:36.836Z,10.80
2017-10-02T06:06:03.152Z,10.80
2017-10-02T06:08:30.128Z,10.80
2017-10-02T06:10:56.430Z,10.80
2017-10-02T06:13:23.756Z,10.90
2017-10-02T06:15:50.041Z,10.90
2017-10-02T06:18:16.363Z,11.00
2017-10-02T06:20:42.817Z,11.00
2017-10-02T06:23:09.059Z,11.00
2017-10-02T06:25:35.301Z,11.10
2017-10-02T06:28:01.559Z,11.20
2017-10-02T06:30:28.525Z,11.30
2017-10-02T06:32:54.857Z,11.30
2017-10-02T06:35:21.188Z,11.40
2017-10-02T06:37:47.472Z,11.40
2017-10-02T06:40:13.702Z,11.50
2017-10-02T06:42:39.970Z,11.60
2017-10-02T06:45:06.198Z,11.60
2017-10-02T06:47:32.588Z,11.60
2017-10-02T06:49:58.870Z,11.60
2017-10-02T06:52:25.162Z,11.70
2017-10-02T06:54:51.429Z,11.80
2017-10-02T06:57:17.753Z,12.00
2017-10-02T06:59:44.015Z,12.00
2017-10-02T07:02:10.340Z,12.00
2017-10-02T07:04:36.622Z,12.00
2017-10-02T07:07:03.660Z,12.20
2017-10-02T07:09:29.915Z,12.10
2017-10-02T07:11:57.247Z,12.20
2017-10-02T07:14:23.520Z,12.20
2017-10-02T07:16:49.784Z,12.20
2017-10-02T07:19:16.094Z,12.20
2017-10-02T07:21:42.369Z,12.30
2017-10-02T07:24:09.582Z,12.70
2017-10-02T07:26:35.882Z,12.70
2017-10-02T07:29:02.437Z,12.70
2017-10-02T07:31:29.887Z,12.70
2017-10-02T07:33:56.553Z,12.60
2017-10-02T07:36:23.678Z,12.40
2017-10-02T07:38:50.010Z,12.40
2017-10-02T07:41:17.614Z,12.40
2017-10-02T07:43:44.474Z,12.40
2017-10-02T07:46:11.012Z,12.50
2017-10-02T07:48:38.297Z,12.70
2017-10-02T07:51:04.577Z,12.70
2017-10-02T07:53:31.594Z,12.70
2017-10-02T07:55:58.120Z,12.60
2017-10-02T07:58:25.367Z,12.70
2017-10-02T08:00:52.046Z,12.80
2017-10-02T08:03:18.662Z,12.80
2017-10-02T08:05:45.284Z,12.80
2017-10-02T08:08:12.520Z,12.80
2017-10-02T08:10:39.010Z,12.80
2017-10-02T08:13:06.619Z,12.90
2017-10-02T08:15:33.169Z,12.90
2017-10-02T08:17:59.493Z,13.00
2017-10-02T08:20:26.020Z,12.90
2017-10-02T08:22:53.554Z,12.80
2017-10-02T08:25:20.128Z,12.80
2017-10-02T08:27:47.533Z,12.70
2017-10-02T08:30:14.118Z,12.70
2017-10-02T08:32:40.878Z,12.70
2017-10-02T08:35:07.687Z,12.70
2017-10-02T08:37:34.283Z,12.90
2017-10-02T08:40:00.795Z,12.90
2017-10-02T08:42:28.179Z,13.10
2017-10-02T08:44:54.762Z,13.20
2017-10-02T08:47:21.426Z,13.30
2017-10-02T08:49:48.784Z,13.60
2017-10-02T08:52:15.592Z,13.50
2017-10-02T08:54:42.243Z,13.60
2017-10-02T08:57:08.795Z,13.70
2017-10-02T08:59:36.153Z,13.80
2017-10-02T09:02:03.676Z,13.80
2017-10-02T09:04:30.309Z,14.00
2017-10-02T09:06:56.570Z,14.00
2017-10-02T09:09:22.896Z,14.10
2017-10-02T09:11:49.188Z,14.30
2017-10-02T09:14:15.416Z,14.30
2017-10-02T09:16:41.741Z,14.50
2017-10-02T09:19:08.044Z,14.50
2017-10-02T09:21:34.309Z,14.60
2017-10-02T09:24:00.576Z,14.70
2017-10-02T09:26:26.857Z,14.70
2017-10-02T09:28:53.922Z,14.60
2017-10-02T09:31:20.209Z,14.60
2017-10-02T09:33:46.429Z,14.50
2017-10-02T09:36:12.735Z,14.60
2017-10-02T09:38:38.957Z,14.60
2017-10-02T09:41:05.245Z,14.70
2017-10-02T09:43:32.290Z,14.90
2017-10-02T09:45:59.303Z,14.90
2017-10-02T09:48:25.626Z,14.90
2017-10-02T09:50:51.913Z,15.00
2017-10-02T09:53:18.227Z,15.00
2017-10-02T09:55:45.332Z,15.00
2017-10-02T09:58:11.625Z,15.00
2017-10-02T10:00:38.665Z,15.20
2017-10-02T10:03:04.992Z,15.20
2017-10-02T10:05:31.968Z,15.40
2017-10-02T10:07:58.332Z,15.30
2017-10-02T10:10:24.612Z,15.40
2017-10-02T10:12:50.918Z,15.40
2017-10-02T10:15:17.980Z,15.60
2017-10-02T10:17:45.035Z,15.50
2017-10-02T10:20:12.127Z,15.50
2017-10-02T10:22:38.405Z,15.50
2017-10-02T10:25:05.378Z,15.50
2017-10-02T10:27:31.646Z,15.50
2017-10-02T10:29:57.974Z,15.60
2017-10-02T10:32:24.245Z,15.70
2017-10-02T10:34:50.497Z,15.80
2017-10-02T10:37:16.785Z,15.90
2017-10-02T10:39:43.843Z,15.80
2017-10-02T10:42:10.875Z,15.90
2017-10-02T10:44:37.234Z,15.90
2017-10-02T10:47:03.533Z,15.90
2017-10-02T10:49:29.772Z,16.00
2017-10-02T10:51:56.858Z,16.00
2017-10-02T10:54:23.126Z,16.00
2017-10-02T10:56:49.444Z,15.90
2017-10-02T10:59:15.717Z,15.90
2017-10-02T11:01:42.785Z,16.10
2017-10-02T11:04:09.055Z,16.10
2017-10-02T11:06:35.329Z,16.10
2017-10-02T11:09:02.413Z,16.20
2017-10-02T11:11:28.734Z,16.20
2017-10-02T11:13:54.934Z,16.10
2017-10-02T11:16:21.916Z,16.10
2017-10-02T11:18:48.179Z,16.10
2017-10-02T11:21:14.473Z,16.20
2017-10-02T11:23:40.795Z,16.30
2017-10-02T11:26:07.089Z,16.40
2017-10-02T11:28:33.344Z,16.50
2017-10-02T11:30:59.546Z,16.60
2017-10-02T11:33:26.562Z,16.60
2017-10-02T11:35:52.840Z,16.50
2017-10-02T11:38:19.808Z,16.60
2017-10-02T11:40:46.078Z,16.50
2017-10-02T11:43:12.355Z,16.50
2017-10-02T11:45:38.624Z,16.60
2017-10-02T11:48:05.125Z,16.70
2017-10-02T11:50:31.390Z,16.80
2017-10-02T11:52:57.716Z,16.90
2017-10-02T11:55:23.976Z,16.90
2017-10-02T11:57:51.077Z,16.70
2017-10-02T12:00:17.383Z,16.70
2017-10-02T12:02:43.598Z,16.70
2017-10-02T12:05:11.606Z,16.80
2017-10-02T12:07:37.924Z,16.80
2017-10-02T12:10:04.236Z,16.80
2017-10-02T12:12:30.585Z,16.90
2017-10-02T12:14:56.849Z,16.80
2017-10-02T12:17:23.137Z,16.70
2017-10-02T12:19:49.441Z,16.70
2017-10-02T12:22:16.379Z,16.60
2017-10-02T12:24:43.012Z,16.60
2017-10-02T12:27:09.273Z,16.50
2017-10-02T12:29:35.546Z,16.40
2017-10-02T12:32:01.826Z,16.50
2017-10-02T12:34:28.871Z,16.50
2017-10-02T12:36:56.208Z,16.50
2017-10-02T12:39:22.465Z,16.50
2017-10-02T12:41:48.699Z,16.50
2017-10-02T12:44:15.046Z,16.50
2017-10-02T12:46:41.334Z,16.40
2017-10-02T12:49:08.374Z,16.40
2017-10-02T12:51:34.642Z,16.40
2017-10-02T12:54:00.921Z,16.40
2017-10-02T12:56:27.278Z,16.40
2017-10-02T12:58:54.320Z,16.40
2017-10-02T13:01:21.365Z,16.30
2017-10-02T13:03:48.414Z,16.30
2017-10-02T13:06:15.438Z,16.20
2017-10-02T13:08:41.728Z,16.20
2017-10-02T13:11:08.006Z,16.20
2017-10-02T13:13:34.693Z,16.20
2017-10-02T13:16:00.972Z,16.20
2017-10-02T13:18:27.257Z,16.20
2017-10-02T13:20:53.495Z,16.30
2017-10-02T13:23:19.789Z,16.30
2017-10-02T13:25:46.898Z,16.10
2017-10-02T13:28:13.138Z,16.10
2017-10-02T13:30:39.400Z,16.10
2017-10-02T13:33:06.404Z,16.10
2017-10-02T13:35:32.658Z,16.10
2017-10-02T13:37:59.648Z,16.20
2017-10-02T13:40:25.891Z,16.10
2017-10-02T13:42:52.124Z,16.10
2017-10-02T13:45:18.405Z,16.10
2017-10-02T13:47:45.475Z,16.20
2017-10-02T13:50:12.162Z,16.20
2017-10-02T13:52:38.386Z,16.30
2017-10-02T13:55:04.647Z,16.30
2017-10-02T13:57:31.674Z,16.20
2017-10-02T13:59:58.748Z,16.20
2017-10-02T14:02:25.046Z,16.20
2017-10-02T14:04:51.352Z,16.20
2017-10-02T14:07:17.649Z,16.20
2017-10-02T14:09:43.928Z,16.20
2017-10-02T14:12:10.232Z,16.20
2017-10-02T14:14:36.522Z,16.20
2017-10-02T14:17:02.763Z,16.20
2017-10-02T14:19:28.978Z,16.20
2017-10-02T14:21:55.984Z,16.20
2017-10-02T14:24:22.299Z,16.20
2017-10-02T14:26:48.645Z,16.10
2017-10-02T14:29:14.938Z,16.10
2017-10-02T14:31:41.196Z,16.10
2017-10-02T14:34:07.827Z,16.10
2017-10-02T14:36:34.094Z,16.00
2017-10-02T14:39:00.361Z,16.00
2017-10-02T14:41:26.673Z,16.00
2017-10-02T14:43:53.643Z,16.00
2017-10-02T14:46:20.026Z,15.90
2017-10-02T14:48:46.299Z,15.90
2017-10-02T14:51:12.578Z,15.90
2017-10-02T14:53:39.556Z,15.90
2017-10-02T14:56:06.610Z,15.90
2017-10-02T14:58:32.870Z,15.90
2017-10-02T15:00:59.165Z,15.80
2017-10-02T15:03:25.502Z,15.90
2017-10-02T15:05:51.817Z,15.90
2017-10-02T15:08:18.825Z,15.90
2017-10-02T15:10:45.095Z,15.80
2017-10-02T15:13:12.086Z,15.80
2017-10-02T15:15:38.389Z,15.80
2017-10-02T15:18:04.674Z,15.80
2017-10-02T15:20:30.965Z,15.80
2017-10-02T15:22:57.254Z,15.80
2017-10-02T15:25:24.247Z,15.70
2017-10-02T15:27:50.515Z,15.70
2017-10-02T15:30:16.825Z,15.70
2017-10-02T15:32:43.090Z,15.70
2017-10-02T15:35:09.321Z,15.70
2017-10-02T15:37:36.328Z,15.70
2017-10-02T15:40:02.604Z,15.70
2017-10-02T15:42:29.666Z,15.70
2017-10-02T15:44:55.912Z,15.60
2017-10-02T15:47:22.181Z,15.70
2017-10-02T15:49:49.205Z,15.60
2017-10-02T15:52:15.518Z,15.50
2017-10-02T15:54:41.759Z,15.50
2017-10-02T15:57:08.033Z,15.50
2017-10-02T15:59:34.340Z,15.50
2017-10-02T16:02:00.643Z,15.50
2017-10-02T16:04:26.946Z,15.50
2017-10-02T16:06:53.238Z,15.50
2017-10-02T16:09:19.507Z,15.50
2017-10-02T16:11:45.752Z,15.60
2017-10-02T16:14:12.010Z,15.60
2017-10-02T16:16:38.216Z,15.60
2017-10-02T16:19:04.493Z,15.60
2017-10-02T16:21:30.745Z,15.60
2017-10-02T16:23:57.752Z,15.60
2017-10-02T16:26:24.022Z,15.60
2017-10-02T16:28:51.071Z,15.50
2017-10-02T16:31:17.361Z,15.50
2017-10-02T16:33:43.693Z,15.50
2017-10-02T16:36:09.999Z,15.60
2017-10-02T16:38:36.267Z,15.60
2017-10-02T16:41:02.546Z,15.60
2017-10-02T16:43:28.771Z,15.60
2017-10-02T16:45:55.068Z,15.60
2017-10-02T16:48:22.106Z,15.60
2017-10-02T16:50:49.129Z,15.60
2017-10-02T16:53:15.442Z,15.60
2017-10-02T16:55:41.742Z,15.60
2017-10-02T16:58:08.010Z,15.50
2017-10-02T17:00:34.299Z,15.50
2017-10-02T17:03:00.554Z,15.50
2017-10-02T17:05:26.813Z,15.40
2017-10-02T17:07:53.104Z,15.50
2017-10-02T17:10:19.381Z,15.50
2017-10-02T17:12:45.686Z,15.50
2017-10-02T17:15:11.908Z,15.50
2017-10-02T17:17:38.195Z,15.60
2017-10-02T17:20:04.449Z,15.50
2017-10-02T17:22:30.736Z,15.60
2017-10-02T17:24:57.008Z,15.60
2017-10-02T17:27:23.246Z,15.50
2017-10-02T17:29:49.491Z,15.50
2017-10-02T17:32:15.802Z,15.60
2017-10-02T17:34:42.053Z,15.50
2017-10-02T17:37:08.283Z,15.60
2017-10-02T17:39:34.836Z,15.50
2017-10-02T17:42:01.109Z,15.50
2017-10-02T17:44:27.537Z,15.60
2017-10-02T17:46:53.834Z,15.60
2017-10-02T17:49:20.127Z,15.60
2017-10-02T17:51:47.066Z,15.60
2017-10-02T17:54:13.351Z,15.60
2017-10-02T17:56:40.392Z,15.70
2017-10-02T17:59:07.386Z,15.70
2017-10-02T18:01:34.363Z,15.60
2017-10-02T18:04:00.693Z,15.70
2017-10-02T18:06:26.950Z,15.60
2017-10-02T18:08:53.959Z,15.60
2017-10-02T18:11:20.235Z,15.60
2017-10-02T18:13:47.344Z,15.60
2017-10-02T18:16:13.610Z,15.70
2017-10-02T18:18:40.726Z,15.70
2017-10-02T18:21:06.964Z,15.70
2017-10-02T18:23:34.077Z,15.70
2017-10-02T18:26:00.366Z,15.60
2017-10-02T18:28:27.422Z,15.70
2017-10-02T18:30:54.469Z,15.70
2017-10-02T18:33:20.689Z,15.70
2017-10-02T18:35:47.712Z,15.70
2017-10-02T18:38:14.022Z,15.70
2017-10-02T18:40:40.279Z,15.70
2017-10-02T18:43:06.666Z,15.80
2017-10-02T18:45:32.943Z,15.70
2017-10-02T18:47:59.224Z,15.80
2017-10-02T18:50:25.528Z,15.70
2017-10-02T18:52:51.806Z,15.70
2017-10-02T18:55:18.063Z,15.80
2017-10-02T18:57:44.355Z,15.80
2017-10-02T19:00:10.627Z,15.70
2017-10-02T19:02:36.890Z,15.80
2017-10-02T19:05:03.171Z,15.80
2017-10-02T19:07:29.462Z,15.70
2017-10-02T19:09:55.807Z,15.70
2017-10-02T19:12:22.081Z,15.80
2017-10-02T19:14:51.530Z,15.80
2017-10-02T19:17:17.846Z,15.80
2017-10-02T19:19:44.109Z,15.70
2017-10-02T19:22:10.464Z,15.70
2017-10-02T19:24:36.869Z,15.70
2017-10-02T19:27:03.966Z,15.70
2017-10-02T19:29:30.972Z,15.80
2017-10-02T19:31:57.171Z,15.80
2017-10-02T19:34:23.500Z,15.80
2017-10-02T19:36:49.817Z,15.80
2017-10-02T19:39:16.144Z,15.80
2017-10-02T19:41:42.810Z,15.80
2017-10-02T19:44:09.099Z,15.80
2017-10-02T19:46:36.091Z,15.80
2017-10-02T19:49:03.332Z,15.80
2017-10-02T19:51:29.679Z,15.80
2017-10-02T19:53:55.903Z,15.80
2017-10-02T19:56:22.530Z,15.80
2017-10-02T19:58:48.842Z,15.80
2017-10-02T20:01:15.875Z,15.80
2017-10-02T20:03:42.932Z,15.90
2017-10-02T20:06:09.241Z,15.90
2017-10-02T20:08:36.258Z,15.80
2017-10-02T20:11:02.499Z,15.80
2017-10-02T20:13:28.758Z,15.80
2017-10-02T20:15:55.791Z,15.90
2017-10-02T20:18:22.171Z,15.80
2017-10-02T20:20:48.814Z,15.90
2017-10-02T20:23:15.251Z,15.90
2017-10-02T20:25:41.562Z,15.90
2017-10-02T20:28:07.823Z,15.90
2017-10-02T20:30:34.339Z,15.90
2017-10-02T20:33:00.661Z,15.90
2017-10-02T20:35:26.929Z,16.00
2017-10-02T20:37:53.167Z,15.90
2017-10-02T20:40:19.453Z,15.90
2017-10-02T20:42:45.762Z,15.80
2017-10-02T20:45:12.535Z,15.80
2017-10-02T20:47:38.774Z,15.80
2017-10-02T20:50:05.084Z,15.70
2017-10-02T20:52:31.440Z,15.80
2017-10-02T20:54:57.735Z,15.70
2017-10-02T20:57:24.046Z,15.70
2017-10-02T20:59:50.441Z,15.70
2017-10-02T21:02:16.695Z,15.70
2017-10-02T21:04:43.161Z,15.70
2017-10-02T21:07:09.461Z,15.70
2017-10-02T21:09:36.497Z,15.70
2017-10-02T21:12:02.827Z,15.70
2017-10-02T21:14:29.122Z,15.70
2017-10-02T21:16:55.474Z,15.70
2017-10-02T21:19:21.770Z,15.70
2017-10-02T21:21:48.412Z,15.70
2017-10-02T21:24:14.651Z,15.70
2017-10-02T21:26:40.936Z,15.70
2017-10-02T21:29:07.916Z,15.70
2017-10-02T21:31:34.217Z,15.70
2017-10-02T21:34:01.245Z,15.70
2017-10-02T21:36:27.510Z,15.70
2017-10-02T21:38:53.750Z,15.70
2017-10-02T21:41:19.990Z,15.80
2017-10-02T21:43:46.316Z,15.80
2017-10-02T21:46:12.598Z,15.70
2017-10-02T21:48:39.591Z,15.50
2017-10-02T21:51:05.917Z,15.50
2017-10-02T21:53:32.249Z,15.50
2017-10-02T21:55:58.511Z,15.40
2017-10-02T21:58:24.788Z,15.40
2017-10-02T22:00:51.066Z,15.40
2017-10-02T22:03:18.057Z,15.40
2017-10-02T22:05:44.325Z,15.30
2017-10-02T22:08:10.558Z,15.30
2017-10-02T22:10:36.774Z,15.30
2017-10-02T22:13:03.013Z,15.30
2017-10-02T22:15:29.343Z,15.30
2017-10-02T22:17:55.575Z,15.20
2017-10-02T22:20:21.830Z,15.20
2017-10-02T22:22:48.123Z,15.20
2017-10-02T22:25:14.341Z,15.20
2017-10-02T22:27:40.614Z,15.10
2017-10-02T22:30:06.846Z,15.10
2017-10-02T22:32:33.168Z,15.10
2017-10-02T22:34:59.486Z,15.10
2017-10-02T22:37:25.829Z,15.10
2017-10-02T22:39:52.092Z,15.10
2017-10-02T22:42:19.134Z,15.10
2017-10-02T22:44:46.176Z,15.10
2017-10-02T22:47:13.183Z,15.10
2017-10-02T22:49:39.441Z,15.10
2017-10-02T22:52:05.725Z,15.10
2017-10-02T22:54:31.989Z,15.10
2017-10-02T22:56:58.257Z,15.10
2017-10-02T22:59:24.541Z,15.10
2017-10-02T23:01:50.768Z,15.10
2017-10-02T23:04:17.057Z,15.10
2017-10-02T23:06:43.267Z,15.10
2017-10-02T23:09:10.301Z,15.00
2017-10-02T23:11:37.320Z,15.10
2017-10-02T23:14:03.617Z,15.10
2017-10-02T23:16:29.870Z,15.10
2017-10-02T23:18:56.152Z,15.00
2017-10-02T23:21:22.434Z,15.10
2017-10-02T23:23:48.761Z,15.10
2017-10-02T23:26:15.042Z,15.10
2017-10-02T23:28:42.028Z,15.10
2017-10-02T23:31:08.305Z,15.10
2017-10-02T23:33:35.337Z,15.10
2017-10-02T23:36:01.583Z,15.10
2017-10-02T23:38:28.615Z,15.20
2017-10-02T23:40:54.896Z,15.20
2017-10-02T23:43:21.125Z,15.20
2017-10-02T23:45:47.368Z,15.20
2017-10-02T23:48:13.607Z,15.20
2017-10-02T23:50:39.845Z,15.20
2017-10-02T23:53:06.130Z,15.20
2017-10-02T23:55:32.448Z,15.20
2017-10-02T23:57:59.441Z,15.20
